Seacrest, Florida
Current Conditions -  °F | °C
As of 5:06 PM on Monday 22 Dec 2014 (Local Time) from KECP Reporting Station
Light Rain Light Rain  
Wind Chill: 19°   Ceiling: 700
Heat Index: 19°   Visibility: 5mi
Dew Point: 18°   Wind: 0mph
Humidity: 94%   Direction: NA
Pressure: 29.81"   Gusts: NA
Location:  30.3525°N, 85.9093°W
Report Text: KECP 222306Z 00000KT 5SM -RA BR BKN007 19/18 A2981 RMK AO2 P0000 $
Loading
Personal Weather Stations






























Interactive Weather Map New forecast layout! Learn more

10-Day Weather Forecast

Advertisements
Track Severe Weather on mobile